sensor_id;sensor_type;location;lat;lon;timestamp;pressure;altitude;pressure_sealevel;temperature;humidity
44198;BME280;30157;55.512;37.764;2023-04-09T00:02:16;100985.59;;;6.15;54.38
44198;BME280;30157;55.512;37.764;2023-04-09T00:04:42;101016.38;;;6.37;54.43
44198;BME280;30157;55.512;37.764;2023-04-09T00:07:08;100983.78;;;6.12;54.54
44198;BME280;30157;55.512;37.764;2023-04-09T00:09:33;101044.84;;;6.41;54.62
44198;BME280;30157;55.512;37.764;2023-04-09T00:12:00;101043.09;;;6.39;54.62
44198;BME280;30157;55.512;37.764;2023-04-09T00:14:26;101026.34;;;6.27;54.64
44198;BME280;30157;55.512;37.764;2023-04-09T00:16:52;101029.72;;;6.24;55.24
44198;BME280;30157;55.512;37.764;2023-04-09T00:19:20;101000.19;;;6.14;54.88
44198;BME280;30157;55.512;37.764;2023-04-09T00:21:46;101019.25;;;6.19;55.13
44198;BME280;30157;55.512;37.764;2023-04-09T00:24:13;101011.22;;;6.10;55.12
44198;BME280;30157;55.512;37.764;2023-04-09T00:26:39;101048.53;;;6.21;55.22
44198;BME280;30157;55.512;37.764;2023-04-09T00:29:04;101002.81;;;5.90;55.55
44198;BME280;30157;55.512;37.764;2023-04-09T00:31:30;101023.34;;;5.87;55.86
44198;BME280;30157;55.512;37.764;2023-04-09T00:33:57;101040.75;;;5.94;56.13
44198;BME280;30157;55.512;37.764;2023-04-09T00:36:22;101026.09;;;5.93;55.86
44198;BME280;30157;55.512;37.764;2023-04-09T00:38:49;100910.66;;;5.30;55.75
44198;BME280;30157;55.512;37.764;2023-04-09T00:41:16;101032.56;;;6.06;55.81
44198;BME280;30157;55.512;37.764;2023-04-09T00:43:42;100959.06;;;5.66;55.68
44198;BME280;30157;55.512;37.764;2023-04-09T00:46:07;101032.63;;;6.08;55.62
44198;BME280;30157;55.512;37.764;2023-04-09T00:48:33;100979.13;;;5.76;55.77
44198;BME280;30157;55.512;37.764;2023-04-09T00:50:59;101033.41;;;6.05;56.16
44198;BME280;30157;55.512;37.764;2023-04-09T00:53:25;101025.31;;;5.96;56.14
44198;BME280;30157;55.512;37.764;2023-04-09T00:55:52;100997.34;;;5.81;56.36
44198;BME280;30157;55.512;37.764;2023-04-09T00:58:18;100998.88;;;5.76;56.33
44198;BME280;30157;55.512;37.764;2023-04-09T01:00:45;101007.56;;;5.78;56.77
44198;BME280;30157;55.512;37.764;2023-04-09T01:03:11;101015.44;;;5.82;56.85
44198;BME280;30157;55.512;37.764;2023-04-09T01:05:52;101028.47;;;5.87;56.68
44198;BME280;30157;55.512;37.764;2023-04-09T01:08:42;101023.00;;;5.78;56.90
44198;BME280;30157;55.512;37.764;2023-04-09T01:11:23;100935.97;;;5.17;57.10
44198;BME280;30157;55.512;37.764;2023-04-09T01:16:28;101032.34;;;5.74;56.98
44198;BME280;30157;55.512;37.764;2023-04-09T01:19:03;101004.34;;;5.59;57.26
44198;BME280;30157;55.512;37.764;2023-04-09T01:21:34;101032.88;;;5.65;57.57
44198;BME280;30157;55.512;37.764;2023-04-09T01:29:09;100971.19;;;5.18;57.87
44198;BME280;30157;55.512;37.764;2023-04-09T01:31:37;101020.28;;;5.49;58.01
44198;BME280;30157;55.512;37.764;2023-04-09T01:34:05;101040.41;;;5.59;58.13
44198;BME280;30157;55.512;37.764;2023-04-09T01:36:34;100963.13;;;5.09;58.50
44198;BME280;30157;55.512;37.764;2023-04-09T01:39:03;100978.72;;;5.14;58.58
44198;BME280;30157;55.512;37.764;2023-04-09T01:41:30;100974.41;;;5.13;58.80
44198;BME280;30157;55.512;37.764;2023-04-09T01:43:57;100949.03;;;4.99;58.62
44198;BME280;30157;55.512;37.764;2023-04-09T01:46:26;101025.25;;;5.43;58.40
44198;BME280;30157;55.512;37.764;2023-04-09T01:48:54;101005.91;;;5.30;58.48
44198;BME280;30157;55.512;37.764;2023-04-09T01:51:20;100987.53;;;5.20;58.63
44198;BME280;30157;55.512;37.764;2023-04-09T01:53:45;100970.84;;;5.09;58.90
44198;BME280;30157;55.512;37.764;2023-04-09T01:56:11;101044.28;;;5.48;58.75
44198;BME280;30157;55.512;37.764;2023-04-09T01:58:37;101041.66;;;5.46;58.91
44198;BME280;30157;55.512;37.764;2023-04-09T02:01:15;101010.91;;;5.25;58.84
44198;BME280;30157;55.512;37.764;2023-04-09T02:03:46;101017.84;;;5.28;59.28
44198;BME280;30157;55.512;37.764;2023-04-09T02:06:16;101008.94;;;5.19;59.33
44198;BME280;30157;55.512;37.764;2023-04-09T02:08:46;100996.84;;;5.17;59.46
44198;BME280;30157;55.512;37.764;2023-04-09T02:11:13;101034.44;;;5.36;59.43
44198;BME280;30157;55.512;37.764;2023-04-09T02:13:40;101015.09;;;5.23;59.24
44198;BME280;30157;55.512;37.764;2023-04-09T02:16:28;100961.66;;;4.92;59.26
44198;BME280;30157;55.512;37.764;2023-04-09T02:18:55;101027.34;;;5.30;59.46
44198;BME280;30157;55.512;37.764;2023-04-09T02:21:22;101036.13;;;5.35;59.23
44198;BME280;30157;55.512;37.764;2023-04-09T02:23:49;101030.78;;;5.29;59.19
44198;BME280;30157;55.512;37.764;2023-04-09T02:26:15;101042.00;;;5.31;59.50
44198;BME280;30157;55.512;37.764;2023-04-09T02:28:40;101013.00;;;5.13;59.57
44198;BME280;30157;55.512;37.764;2023-04-09T02:31:06;100941.84;;;4.66;60.08
44198;BME280;30157;55.512;37.764;2023-04-09T02:33:32;101010.16;;;5.05;60.00
44198;BME280;30157;55.512;37.764;2023-04-09T02:35:58;101029.50;;;5.18;60.02
44198;BME280;30157;55.512;37.764;2023-04-09T02:38:23;101044.94;;;5.18;60.29
44198;BME280;30157;55.512;37.764;2023-04-09T02:40:49;100962.78;;;4.76;60.37
44198;BME280;30157;55.512;37.764;2023-04-09T02:43:22;101000.63;;;5.02;60.19
44198;BME280;30157;55.512;37.764;2023-04-09T02:45:48;101025.88;;;5.13;60.73
44198;BME280;30157;55.512;37.764;2023-04-09T02:48:14;100972.13;;;4.74;60.60
44198;BME280;30157;55.512;37.764;2023-04-09T02:50:42;101009.44;;;4.85;60.76
44198;BME280;30157;55.512;37.764;2023-04-09T02:53:08;101033.09;;;4.99;61.06
44198;BME280;30157;55.512;37.764;2023-04-09T02:55:34;101040.09;;;5.03;61.00
44198;BME280;30157;55.512;37.764;2023-04-09T02:58:01;100977.91;;;4.68;60.97
44198;BME280;30157;55.512;37.764;2023-04-09T03:00:27;101034.78;;;4.98;61.19
44198;BME280;30157;55.512;37.764;2023-04-09T03:02:54;101016.44;;;4.89;61.39
44198;BME280;30157;55.512;37.764;2023-04-09T03:05:23;100978.50;;;4.61;61.58
44198;BME280;30157;55.512;37.764;2023-04-09T03:07:48;101044.25;;;4.99;61.71
44198;BME280;30157;55.512;37.764;2023-04-09T03:10:14;101021.34;;;4.83;61.78
44198;BME280;30157;55.512;37.764;2023-04-09T03:12:40;101011.41;;;4.69;62.29
44198;BME280;30157;55.512;37.764;2023-04-09T03:15:09;101036.56;;;4.77;62.45
44198;BME280;30157;55.512;37.764;2023-04-09T03:17:35;101041.88;;;4.81;62.74
44198;BME280;30157;55.512;37.764;2023-04-09T03:20:01;101067.94;;;4.91;62.82
44198;BME280;30157;55.512;37.764;2023-04-09T03:22:37;101028.09;;;4.79;62.70
44198;BME280;30157;55.512;37.764;2023-04-09T03:25:07;101059.06;;;5.05;62.64
44198;BME280;30157;55.512;37.764;2023-04-09T03:27:34;100997.84;;;4.74;62.36
44198;BME280;30157;55.512;37.764;2023-04-09T03:30:01;101041.66;;;4.99;62.35
44198;BME280;30157;55.512;37.764;2023-04-09T03:32:35;101047.16;;;5.09;62.40
44198;BME280;30157;55.512;37.764;2023-04-09T03:35:01;101062.91;;;5.16;62.17
44198;BME280;30157;55.512;37.764;2023-04-09T03:37:29;101039.59;;;5.12;62.00
44198;BME280;30157;55.512;37.764;2023-04-09T03:39:55;101052.94;;;5.26;61.85
44198;BME280;30157;55.512;37.764;2023-04-09T03:42:25;101028.53;;;5.14;61.84
44198;BME280;30157;55.512;37.764;2023-04-09T03:44:52;101031.69;;;5.31;61.83
44198;BME280;30157;55.512;37.764;2023-04-09T03:47:29;101023.09;;;5.31;61.43
44198;BME280;30157;55.512;37.764;2023-04-09T03:49:55;100977.91;;;5.15;61.22
44198;BME280;30157;55.512;37.764;2023-04-09T03:52:25;101035.97;;;5.55;61.10
44198;BME280;30157;55.512;37.764;2023-04-09T03:54:58;100890.09;;;4.81;60.42
44198;BME280;30157;55.512;37.764;2023-04-09T03:57:26;100976.16;;;5.38;60.73
44198;BME280;30157;55.512;37.764;2023-04-09T03:59:53;101050.81;;;5.88;60.29
44198;BME280;30157;55.512;37.764;2023-04-09T04:02:21;101055.78;;;6.06;60.07
44198;BME280;30157;55.512;37.764;2023-04-09T04:04:56;100993.41;;;5.66;59.96
44198;BME280;30157;55.512;37.764;2023-04-09T04:07:27;100989.25;;;5.70;60.20
44198;BME280;30157;55.512;37.764;2023-04-09T04:09:58;101036.22;;;6.13;60.04
44198;BME280;30157;55.512;37.764;2023-04-09T04:12:24;100974.56;;;5.93;59.59
44198;BME280;30157;55.512;37.764;2023-04-09T04:15:02;101030.09;;;6.36;59.38
44198;BME280;30157;55.512;37.764;2023-04-09T04:17:36;100976.25;;;6.18;58.98
44198;BME280;30157;55.512;37.764;2023-04-09T04:20:05;101056.13;;;6.71;58.71
44198;BME280;30157;55.512;37.764;2023-04-09T04:22:37;101001.59;;;6.61;58.55
44198;BME280;30157;55.512;37.764;2023-04-09T04:25:03;101045.38;;;7.15;58.13
44198;BME280;30157;55.512;37.764;2023-04-09T04:27:29;101045.59;;;7.23;57.77
44198;BME280;30157;55.512;37.764;2023-04-09T04:29:56;101029.94;;;7.49;57.55
44198;BME280;30157;55.512;37.764;2023-04-09T04:32:39;101028.59;;;7.97;56.37
44198;BME280;30157;55.512;37.764;2023-04-09T04:35:09;100868.38;;;7.63;55.07
44198;BME280;30157;55.512;37.764;2023-04-09T04:37:35;101045.47;;;9.32;54.37
44198;BME280;30157;55.512;37.764;2023-04-09T04:40:01;101037.22;;;9.53;52.72
44198;BME280;30157;55.512;37.764;2023-04-09T04:42:30;101005.22;;;9.51;51.89
44198;BME280;30157;55.512;37.764;2023-04-09T04:44:58;101030.72;;;9.75;51.91
44198;BME280;30157;55.512;37.764;2023-04-09T04:47:44;101036.75;;;9.74;51.87
44198;BME280;30157;55.512;37.764;2023-04-09T04:50:10;101037.44;;;10.16;51.31
44198;BME280;30157;55.512;37.764;2023-04-09T04:52:58;101031.28;;;10.07;50.01
44198;BME280;30157;55.512;37.764;2023-04-09T04:55:28;100978.22;;;9.39;51.08
44198;BME280;30157;55.512;37.764;2023-04-09T04:57:54;101042.44;;;10.03;50.53
44198;BME280;30157;55.512;37.764;2023-04-09T05:00:24;101021.47;;;9.89;49.68
44198;BME280;30157;55.512;37.764;2023-04-09T05:02:49;101040.44;;;9.87;50.54
44198;BME280;30157;55.512;37.764;2023-04-09T05:05:20;101033.81;;;9.55;50.61
44198;BME280;30157;55.512;37.764;2023-04-09T05:07:50;101022.34;;;9.43;50.87
44198;BME280;30157;55.512;37.764;2023-04-09T05:10:16;101031.41;;;9.66;50.38
44198;BME280;30157;55.512;37.764;2023-04-09T05:12:43;101037.25;;;10.03;50.01
44198;BME280;30157;55.512;37.764;2023-04-09T05:15:11;101039.34;;;10.83;48.86
44198;BME280;30157;55.512;37.764;2023-04-09T05:17:37;101042.59;;;11.32;46.93
44198;BME280;30157;55.512;37.764;2023-04-09T05:20:04;101037.50;;;11.45;46.73
44198;BME280;30157;55.512;37.764;2023-04-09T05:22:44;100973.03;;;11.13;46.22
44198;BME280;30157;55.512;37.764;2023-04-09T05:25:11;101045.28;;;10.74;47.33
44198;BME280;30157;55.512;37.764;2023-04-09T05:27:39;101015.94;;;9.69;49.58
44198;BME280;30157;55.512;37.764;2023-04-09T05:30:06;100977.94;;;9.22;50.38
44198;BME280;30157;55.512;37.764;2023-04-09T05:32:36;101018.81;;;9.39;50.62
44198;BME280;30157;55.512;37.764;2023-04-09T05:35:02;100996.41;;;8.97;51.41
44198;BME280;30157;55.512;37.764;2023-04-09T05:37:30;101044.72;;;8.96;52.10
44198;BME280;30157;55.512;37.764;2023-04-09T05:39:56;101051.22;;;8.40;53.86
44198;BME280;30157;55.512;37.764;2023-04-09T05:42:23;101034.28;;;8.18;54.17
44198;BME280;30157;55.512;37.764;2023-04-09T05:44:59;101050.69;;;8.19;54.27
44198;BME280;30157;55.512;37.764;2023-04-09T05:47:25;100990.31;;;7.82;54.36
44198;BME280;30157;55.512;37.764;2023-04-09T05:50:05;101039.28;;;8.11;54.74
44198;BME280;30157;55.512;37.764;2023-04-09T05:52:31;101034.44;;;8.24;54.48
44198;BME280;30157;55.512;37.764;2023-04-09T05:54:57;101016.53;;;8.32;54.04
44198;BME280;30157;55.512;37.764;2023-04-09T05:57:34;101057.06;;;8.68;53.80
44198;BME280;30157;55.512;37.764;2023-04-09T06:00:03;100948.44;;;8.33;53.26
44198;BME280;30157;55.512;37.764;2023-04-09T06:02:42;101051.25;;;9.18;52.80
44198;BME280;30157;55.512;37.764;2023-04-09T06:05:08;101047.66;;;9.56;52.03
44198;BME280;30157;55.512;37.764;2023-04-09T06:07:33;101056.84;;;9.86;51.15
44198;BME280;30157;55.512;37.764;2023-04-09T06:09:59;101032.72;;;9.91;50.73
44198;BME280;30157;55.512;37.764;2023-04-09T06:12:28;101052.50;;;10.35;50.04
44198;BME280;30157;55.512;37.764;2023-04-09T06:14:54;101008.97;;;10.20;49.67
44198;BME280;30157;55.512;37.764;2023-04-09T06:17:20;101055.44;;;10.57;49.24
44198;BME280;30157;55.512;37.764;2023-04-09T06:19:46;101047.88;;;10.74;49.01
44198;BME280;30157;55.512;37.764;2023-04-09T06:22:11;101058.91;;;11.23;48.38
44198;BME280;30157;55.512;37.764;2023-04-09T06:24:37;101064.22;;;12.13;47.13
44198;BME280;30157;55.512;37.764;2023-04-09T06:27:02;101048.13;;;12.65;45.52
44198;BME280;30157;55.512;37.764;2023-04-09T06:29:28;101028.34;;;12.99;44.73
44198;BME280;30157;55.512;37.764;2023-04-09T06:31:54;101061.50;;;13.34;44.35
44198;BME280;30157;55.512;37.764;2023-04-09T06:34:20;101025.88;;;13.39;43.19
44198;BME280;30157;55.512;37.764;2023-04-09T06:36:45;101001.44;;;13.11;43.06
44198;BME280;30157;55.512;37.764;2023-04-09T06:39:11;101058.78;;;13.11;43.67
44198;BME280;30157;55.512;37.764;2023-04-09T06:41:37;101021.31;;;12.86;43.57
44198;BME280;30157;55.512;37.764;2023-04-09T06:44:11;100962.97;;;12.51;43.61
44198;BME280;30157;55.512;37.764;2023-04-09T06:46:37;101068.56;;;13.74;43.16
44198;BME280;30157;55.512;37.764;2023-04-09T06:49:03;101065.13;;;14.49;41.36
44198;BME280;30157;55.512;37.764;2023-04-09T06:51:28;101047.69;;;14.59;40.58
44198;BME280;30157;55.512;37.764;2023-04-09T06:53:54;101035.47;;;14.89;39.04
44198;BME280;30157;55.512;37.764;2023-04-09T06:56:20;101051.03;;;15.20;38.82
44198;BME280;30157;55.512;37.764;2023-04-09T06:58:45;101052.59;;;15.53;38.79
44198;BME280;30157;55.512;37.764;2023-04-09T07:01:11;101050.38;;;16.28;38.02
44198;BME280;30157;55.512;37.764;2023-04-09T07:03:37;101052.19;;;17.07;35.35
44198;BME280;30157;55.512;37.764;2023-04-09T07:06:03;100977.00;;;16.31;35.99
44198;BME280;30157;55.512;37.764;2023-04-09T07:08:28;101037.91;;;17.31;35.33
44198;BME280;30157;55.512;37.764;2023-04-09T07:10:54;101013.47;;;17.29;34.90
44198;BME280;30157;55.512;37.764;2023-04-09T07:13:20;101031.78;;;17.30;35.20
44198;BME280;30157;55.512;37.764;2023-04-09T07:15:46;101062.91;;;17.58;35.17
44198;BME280;30157;55.512;37.764;2023-04-09T07:18:11;101044.69;;;18.08;34.08
44198;BME280;30157;55.512;37.764;2023-04-09T07:20:37;101050.66;;;17.59;34.80
44198;BME280;30157;55.512;37.764;2023-04-09T07:23:03;101015.47;;;18.27;34.01
44198;BME280;30157;55.512;37.764;2023-04-09T07:25:29;101064.81;;;19.48;32.16
44198;BME280;30157;55.512;37.764;2023-04-09T07:27:54;101009.81;;;19.36;31.46
44198;BME280;30157;55.512;37.764;2023-04-09T07:30:20;101044.19;;;19.68;30.80
44198;BME280;30157;55.512;37.764;2023-04-09T07:32:46;101059.00;;;19.73;31.51
44198;BME280;30157;55.512;37.764;2023-04-09T07:35:11;101040.03;;;19.98;31.49
44198;BME280;30157;55.512;37.764;2023-04-09T07:37:37;101042.63;;;19.60;30.38
44198;BME280;30157;55.512;37.764;2023-04-09T07:40:03;101034.09;;;18.61;31.19
44198;BME280;30157;55.512;37.764;2023-04-09T07:42:29;101046.34;;;18.62;30.00
44198;BME280;30157;55.512;37.764;2023-04-09T07:44:55;101062.38;;;19.39;30.08
44198;BME280;30157;55.512;37.764;2023-04-09T07:47:24;100998.22;;;19.04;29.58
44198;BME280;30157;55.512;37.764;2023-04-09T07:49:49;101059.91;;;18.88;29.80
44198;BME280;30157;55.512;37.764;2023-04-09T07:52:15;101071.78;;;19.09;29.09
44198;BME280;30157;55.512;37.764;2023-04-09T07:54:41;101013.75;;;18.24;30.44
44198;BME280;30157;55.512;37.764;2023-04-09T07:57:06;101020.09;;;19.08;29.66
44198;BME280;30157;55.512;37.764;2023-04-09T07:59:35;100990.38;;;19.81;28.13
44198;BME280;30157;55.512;37.764;2023-04-09T08:02:01;101046.75;;;19.31;29.32
44198;BME280;30157;55.512;37.764;2023-04-09T08:04:27;101011.03;;;19.21;28.89
44198;BME280;30157;55.512;37.764;2023-04-09T08:06:53;101054.66;;;19.71;28.45
44198;BME280;30157;55.512;37.764;2023-04-09T08:09:19;101017.81;;;19.69;28.03
44198;BME280;30157;55.512;37.764;2023-04-09T08:11:46;101046.69;;;18.44;29.46
44198;BME280;30157;55.512;37.764;2023-04-09T08:14:12;100996.47;;;16.86;30.64
44198;BME280;30157;55.512;37.764;2023-04-09T08:16:39;101035.50;;;17.16;30.94
44198;BME280;30157;55.512;37.764;2023-04-09T08:19:07;101051.00;;;16.52;32.01
44198;BME280;30157;55.512;37.764;2023-04-09T08:21:33;100995.09;;;15.49;32.95
44198;BME280;30157;55.512;37.764;2023-04-09T08:23:59;101051.69;;;15.62;33.04
44198;BME280;30157;55.512;37.764;2023-04-09T08:26:29;101048.22;;;15.57;33.58
44198;BME280;30157;55.512;37.764;2023-04-09T08:28:55;101037.66;;;15.75;33.73
44198;BME280;30157;55.512;37.764;2023-04-09T08:31:21;101047.25;;;17.52;31.41
44198;BME280;30157;55.512;37.764;2023-04-09T08:33:46;101043.59;;;18.70;30.09
44198;BME280;30157;55.512;37.764;2023-04-09T08:36:12;100981.34;;;18.71;28.97
44198;BME280;30157;55.512;37.764;2023-04-09T08:38:38;101033.00;;;18.73;29.55
44198;BME280;30157;55.512;37.764;2023-04-09T08:41:03;101037.41;;;18.24;30.31
44198;BME280;30157;55.512;37.764;2023-04-09T08:43:31;100987.31;;;17.80;30.37
44198;BME280;30157;55.512;37.764;2023-04-09T08:45:57;101006.72;;;17.70;30.43
44198;BME280;30157;55.512;37.764;2023-04-09T08:48:24;100984.09;;;17.63;30.21
44198;BME280;30157;55.512;37.764;2023-04-09T08:50:50;101000.66;;;18.68;29.57
44198;BME280;30157;55.512;37.764;2023-04-09T08:53:16;101036.34;;;18.81;28.18
44198;BME280;30157;55.512;37.764;2023-04-09T08:55:47;101046.31;;;18.16;29.12
44198;BME280;30157;55.512;37.764;2023-04-09T08:58:13;101027.06;;;17.56;29.80
44198;BME280;30157;55.512;37.764;2023-04-09T09:00:39;101026.00;;;17.69;29.92
44198;BME280;30157;55.512;37.764;2023-04-09T09:03:07;101026.97;;;17.62;30.17
44198;BME280;30157;55.512;37.764;2023-04-09T09:05:43;101034.13;;;17.52;30.33
44198;BME280;30157;55.512;37.764;2023-04-09T09:08:11;100987.25;;;16.53;31.03
44198;BME280;30157;55.512;37.764;2023-04-09T09:10:42;101017.66;;;16.71;31.44
44198;BME280;30157;55.512;37.764;2023-04-09T09:13:24;101039.91;;;18.30;29.02
44198;BME280;30157;55.512;37.764;2023-04-09T09:16:10;100985.59;;;18.33;28.64
44198;BME280;30157;55.512;37.764;2023-04-09T09:18:41;101001.03;;;18.00;29.86
44198;BME280;30157;55.512;37.764;2023-04-09T09:21:11;101033.53;;;18.44;29.16
44198;BME280;30157;55.512;37.764;2023-04-09T09:23:37;101033.09;;;17.62;30.23
44198;BME280;30157;55.512;37.764;2023-04-09T09:26:17;101016.72;;;16.73;30.61
44198;BME280;30157;55.512;37.764;2023-04-09T09:28:47;100979.41;;;16.51;31.20
44198;BME280;30157;55.512;37.764;2023-04-09T09:31:13;100972.72;;;16.21;31.37
44198;BME280;30157;55.512;37.764;2023-04-09T09:33:40;101019.34;;;16.72;31.21
44198;BME280;30157;55.512;37.764;2023-04-09T09:36:06;101002.09;;;16.54;30.99
44198;BME280;30157;55.512;37.764;2023-04-09T09:38:50;101011.22;;;16.11;31.18
44198;BME280;30157;55.512;37.764;2023-04-09T09:41:16;100924.28;;;15.70;31.54
44198;BME280;30157;55.512;37.764;2023-04-09T09:43:44;101009.47;;;16.13;31.67
44198;BME280;30157;55.512;37.764;2023-04-09T09:46:10;101015.63;;;16.06;31.86
44198;BME280;30157;55.512;37.764;2023-04-09T09:48:36;101000.00;;;15.95;31.98
44198;BME280;30157;55.512;37.764;2023-04-09T09:51:10;101022.06;;;15.57;32.61
44198;BME280;30157;55.512;37.764;2023-04-09T09:53:37;101017.56;;;15.76;32.36
44198;BME280;30157;55.512;37.764;2023-04-09T09:56:11;101023.66;;;15.83;32.11
44198;BME280;30157;55.512;37.764;2023-04-09T09:58:48;101017.22;;;16.25;31.51
44198;BME280;30157;55.512;37.764;2023-04-09T10:01:19;101004.34;;;16.01;31.56
44198;BME280;30157;55.512;37.764;2023-04-09T10:03:48;100989.53;;;15.95;31.68
44198;BME280;30157;55.512;37.764;2023-04-09T10:06:15;100985.78;;;16.25;31.36
44198;BME280;30157;55.512;37.764;2023-04-09T10:08:42;101006.59;;;16.39;31.62
44198;BME280;30157;55.512;37.764;2023-04-09T10:11:08;100997.91;;;16.34;31.40
44198;BME280;30157;55.512;37.764;2023-04-09T10:13:37;101009.25;;;16.36;31.70
44198;BME280;30157;55.512;37.764;2023-04-09T10:16:04;100962.63;;;16.68;30.66
44198;BME280;30157;55.512;37.764;2023-04-09T10:18:31;100991.66;;;16.51;30.91
44198;BME280;30157;55.512;37.764;2023-04-09T10:21:23;101006.53;;;16.45;31.10
44198;BME280;30157;55.512;37.764;2023-04-09T10:23:51;100985.47;;;17.28;30.36
44198;BME280;30157;55.512;37.764;2023-04-09T10:26:18;100940.31;;;17.63;29.59
44198;BME280;30157;55.512;37.764;2023-04-09T10:29:02;100929.97;;;17.56;28.81
44198;BME280;30157;55.512;37.764;2023-04-09T10:31:54;100994.34;;;19.21;27.56
44198;BME280;30157;55.512;37.764;2023-04-09T10:34:27;100969.44;;;19.73;26.86
44198;BME280;30157;55.512;37.764;2023-04-09T10:36:57;100930.53;;;19.50;26.82
44198;BME280;30157;55.512;37.764;2023-04-09T10:39:29;100986.88;;;20.15;26.61
44198;BME280;30157;55.512;37.764;2023-04-09T10:42:00;100963.38;;;20.73;26.06
44198;BME280;30157;55.512;37.764;2023-04-09T10:44:33;100986.41;;;21.26;24.72
44198;BME280;30157;55.512;37.764;2023-04-09T10:47:02;100947.09;;;21.17;24.77
44198;BME280;30157;55.512;37.764;2023-04-09T10:49:38;100954.34;;;21.39;23.73
44198;BME280;30157;55.512;37.764;2023-04-09T10:52:08;100981.88;;;21.60;23.99
44198;BME280;30157;55.512;37.764;2023-04-09T10:54:39;100977.09;;;22.23;23.28
44198;BME280;30157;55.512;37.764;2023-04-09T10:57:16;100981.16;;;22.08;22.81
44198;BME280;30157;55.512;37.764;2023-04-09T10:59:47;100980.66;;;21.70;23.70
44198;BME280;30157;55.512;37.764;2023-04-09T11:07:43;100977.47;;;22.39;22.82
44198;BME280;30157;55.512;37.764;2023-04-09T11:10:09;100967.38;;;22.74;22.10
44198;BME280;30157;55.512;37.764;2023-04-09T11:12:37;100925.03;;;22.74;22.07
44198;BME280;30157;55.512;37.764;2023-04-09T11:15:03;100953.44;;;23.39;21.24
44198;BME280;30157;55.512;37.764;2023-04-09T11:17:30;100977.13;;;23.64;21.48
44198;BME280;30157;55.512;37.764;2023-04-09T11:20:01;100978.38;;;23.33;21.02
44198;BME280;30157;55.512;37.764;2023-04-09T11:22:28;100915.59;;;22.67;21.89
44198;BME280;30157;55.512;37.764;2023-04-09T11:24:54;100935.44;;;23.25;21.21
44198;BME280;30157;55.512;37.764;2023-04-09T11:27:19;100956.25;;;23.12;21.23
44198;BME280;30157;55.512;37.764;2023-04-09T11:29:46;100947.97;;;22.97;21.79
44198;BME280;30157;55.512;37.764;2023-04-09T11:32:11;100925.81;;;23.66;20.93
44198;BME280;30157;55.512;37.764;2023-04-09T11:34:37;100960.91;;;24.35;20.58
44198;BME280;30157;55.512;37.764;2023-04-09T11:37:03;100957.50;;;23.47;20.90
44198;BME280;30157;55.512;37.764;2023-04-09T11:39:36;100896.69;;;23.24;21.41
44198;BME280;30157;55.512;37.764;2023-04-09T11:42:02;100937.38;;;22.74;22.02
44198;BME280;30157;55.512;37.764;2023-04-09T11:44:27;100951.50;;;22.74;21.53
44198;BME280;30157;55.512;37.764;2023-04-09T11:46:55;100954.34;;;23.60;20.80
44198;BME280;30157;55.512;37.764;2023-04-09T11:49:22;100933.94;;;22.95;21.12
44198;BME280;30157;55.512;37.764;2023-04-09T11:51:48;100901.88;;;22.32;22.18
44198;BME280;30157;55.512;37.764;2023-04-09T11:54:15;100945.38;;;22.96;21.93
44198;BME280;30157;55.512;37.764;2023-04-09T11:56:43;100943.16;;;22.85;21.76
44198;BME280;30157;55.512;37.764;2023-04-09T11:59:09;100941.63;;;23.02;21.58
44198;BME280;30157;55.512;37.764;2023-04-09T12:01:34;100924.34;;;22.69;21.49
44198;BME280;30157;55.512;37.764;2023-04-09T12:04:00;100940.19;;;19.50;25.09
44198;BME280;30157;55.512;37.764;2023-04-09T12:06:26;100919.31;;;20.12;24.62
44198;BME280;30157;55.512;37.764;2023-04-09T12:08:56;100886.56;;;21.39;22.93
44198;BME280;30157;55.512;37.764;2023-04-09T12:11:29;100879.53;;;21.92;22.24
44198;BME280;30157;55.512;37.764;2023-04-09T12:14:03;100888.63;;;22.08;22.06
44198;BME280;30157;55.512;37.764;2023-04-09T12:16:34;100928.13;;;22.86;21.76
44198;BME280;30157;55.512;37.764;2023-04-09T12:19:04;100869.91;;;22.63;21.79
44198;BME280;30157;55.512;37.764;2023-04-09T12:24:18;100924.38;;;22.91;21.74
44198;BME280;30157;55.512;37.764;2023-04-09T12:26:45;100913.41;;;22.55;21.57
44198;BME280;30157;55.512;37.764;2023-04-09T12:29:13;100905.41;;;21.55;22.30
44198;BME280;30157;55.512;37.764;2023-04-09T12:31:38;100920.22;;;21.33;22.92
44198;BME280;30157;55.512;37.764;2023-04-09T12:34:04;100924.72;;;21.01;23.00
44198;BME280;30157;55.512;37.764;2023-04-09T12:36:30;100885.94;;;19.06;25.07
44198;BME280;30157;55.512;37.764;2023-04-09T12:38:56;100892.13;;;17.69;26.60
44198;BME280;30157;55.512;37.764;2023-04-09T12:41:21;100918.63;;;18.05;26.93
44198;BME280;30157;55.512;37.764;2023-04-09T12:43:47;100903.53;;;17.67;27.47
44198;BME280;30157;55.512;37.764;2023-04-09T12:46:13;100920.50;;;18.00;27.17
44198;BME280;30157;55.512;37.764;2023-04-09T12:48:39;100920.34;;;16.97;28.65
44198;BME280;30157;55.512;37.764;2023-04-09T12:51:05;100893.09;;;16.37;29.30
44198;BME280;30157;55.512;37.764;2023-04-09T12:53:31;100910.63;;;16.32;29.50
44198;BME280;30157;55.512;37.764;2023-04-09T12:55:57;100895.09;;;16.13;29.50
44198;BME280;30157;55.512;37.764;2023-04-09T12:58:23;100910.59;;;16.34;29.50
44198;BME280;30157;55.512;37.764;2023-04-09T13:00:49;100870.09;;;16.61;28.95
44198;BME280;30157;55.512;37.764;2023-04-09T13:03:14;100918.28;;;17.18;28.55
44198;BME280;30157;55.512;37.764;2023-04-09T13:05:43;100899.34;;;16.97;28.54
44198;BME280;30157;55.512;37.764;2023-04-09T13:08:09;100893.19;;;16.29;29.49